createdAt,value
2024-01-10T00:00:40.039Z,996.00
2024-01-10T00:01:40.087Z,993.00
2024-01-10T00:02:40.119Z,991.00
2024-01-10T00:03:40.155Z,990.00
2024-01-10T00:04:40.230Z,986.00
2024-01-10T00:05:40.208Z,986.00
2024-01-10T00:06:40.261Z,988.00
2024-01-10T00:07:40.778Z,988.00
2024-01-10T00:08:40.363Z,987.00
2024-01-10T00:09:40.416Z,983.00
2024-01-10T00:10:40.474Z,980.00
2024-01-10T00:11:40.485Z,979.00
2024-01-10T00:12:40.689Z,979.00
2024-01-10T00:13:40.572Z,979.00
2024-01-10T00:14:40.663Z,980.00
2024-01-10T00:15:40.679Z,979.00
2024-01-10T00:16:40.801Z,976.00
2024-01-10T00:17:40.847Z,976.00
2024-01-10T00:18:40.849Z,974.00
2024-01-10T00:19:40.891Z,972.00
2024-01-10T00:20:40.915Z,970.00
2024-01-10T00:21:40.969Z,969.00
2024-01-10T00:22:41.068Z,969.00
2024-01-10T00:23:41.033Z,968.00
2024-01-10T00:24:41.076Z,968.00
2024-01-10T00:25:41.208Z,965.00
2024-01-10T00:26:41.161Z,965.00
2024-01-10T00:27:41.253Z,964.00
2024-01-10T00:28:41.317Z,963.00
2024-01-10T00:29:41.405Z,962.00
2024-01-10T00:30:41.486Z,963.00
2024-01-10T00:31:41.499Z,962.00
2024-01-10T00:32:41.579Z,961.00
2024-01-10T00:33:41.749Z,959.00
2024-01-10T00:34:41.734Z,960.00
2024-01-10T00:35:41.745Z,960.00
2024-01-10T00:36:41.864Z,958.00
2024-01-10T00:37:41.915Z,959.00
2024-01-10T00:38:41.973Z,957.00
2024-01-10T00:39:42.006Z,958.00
2024-01-10T00:40:42.116Z,960.00
2024-01-10T00:41:42.134Z,955.00
2024-01-10T00:42:42.208Z,955.00
2024-01-10T00:43:42.342Z,953.00
2024-01-10T00:44:42.317Z,949.00
2024-01-10T00:45:42.526Z,944.00
2024-01-10T00:46:42.469Z,942.00
2024-01-10T00:47:42.564Z,942.00
2024-01-10T00:48:42.715Z,942.00
2024-01-10T00:49:42.703Z,942.00
2024-01-10T00:50:42.769Z,941.00
2024-01-10T00:51:42.809Z,939.00
2024-01-10T00:52:42.927Z,938.00
2024-01-10T00:53:42.924Z,938.00
2024-01-10T00:54:42.991Z,939.00
2024-01-10T00:55:43.067Z,937.00
2024-01-10T00:56:43.117Z,934.00
2024-01-10T00:57:43.229Z,936.00
2024-01-10T00:58:44.211Z,935.00
2024-01-10T00:59:43.335Z,932.00
2024-01-10T01:00:43.411Z,932.00
2024-01-10T01:01:43.486Z,934.00
2024-01-10T01:02:43.577Z,933.00
2024-01-10T01:03:43.608Z,929.00
2024-01-10T01:04:43.749Z,928.00
2024-01-10T01:05:43.870Z,928.00
2024-01-10T01:06:43.802Z,930.00
2024-01-10T01:07:43.868Z,930.00
2024-01-10T01:08:43.928Z,930.00
2024-01-10T01:09:43.968Z,928.00
2024-01-10T01:10:44.098Z,929.00
2024-01-10T01:11:44.179Z,929.00
2024-01-10T01:12:44.187Z,926.00
2024-01-10T01:13:44.298Z,924.00
2024-01-10T01:14:44.418Z,924.00
2024-01-10T01:15:44.373Z,922.00
2024-01-10T01:16:44.439Z,922.00
2024-01-10T01:17:44.556Z,923.00
2024-01-10T01:18:44.596Z,923.00
2024-01-10T01:19:44.622Z,921.00
2024-01-10T01:20:44.675Z,919.00
2024-01-10T01:21:44.725Z,916.00
2024-01-10T01:22:44.801Z,918.00
2024-01-10T01:23:44.883Z,917.00
2024-01-10T01:24:44.897Z,916.00
2024-01-10T01:25:44.970Z,910.00
2024-01-10T01:26:45.075Z,907.00
2024-01-10T01:27:45.140Z,904.00
2024-01-10T01:28:45.200Z,906.00
2024-01-10T01:29:45.276Z,904.00
2024-01-10T01:30:45.323Z,904.00
2024-01-10T01:31:45.388Z,900.00
2024-01-10T01:32:45.451Z,899.00
2024-01-10T01:33:45.599Z,896.00
2024-01-10T01:34:45.622Z,895.00
2024-01-10T01:35:45.643Z,896.00
2024-01-10T01:36:45.692Z,897.00
2024-01-10T01:37:45.790Z,895.00
2024-01-10T01:38:45.814Z,894.00
2024-01-10T01:39:45.930Z,893.00
2024-01-10T01:40:46.016Z,892.00
2024-01-10T01:41:46.040Z,893.00
2024-01-10T01:42:46.106Z,892.00
2024-01-10T01:43:46.230Z,890.00
2024-01-10T01:44:46.225Z,890.00
2024-01-10T01:45:46.289Z,891.00
2024-01-10T01:46:46.348Z,890.00
2024-01-10T01:47:46.652Z,887.00
2024-01-10T01:48:46.557Z,890.00
2024-01-10T01:49:46.628Z,891.00
2024-01-10T01:50:46.696Z,889.00
2024-01-10T01:51:46.639Z,888.00
2024-01-10T01:52:46.775Z,887.00
2024-01-10T01:53:47.765Z,886.00
2024-01-10T01:54:46.854Z,887.00
2024-01-10T01:55:47.753Z,884.00
2024-01-10T01:56:46.975Z,881.00
2024-01-10T01:57:47.031Z,883.00
2024-01-10T01:58:47.165Z,880.00
2024-01-10T01:59:47.147Z,880.00
2024-01-10T02:00:47.211Z,877.00
2024-01-10T02:01:47.371Z,874.00
2024-01-10T02:02:47.354Z,876.00
2024-01-10T02:03:47.520Z,878.00
2024-01-10T02:04:47.531Z,876.00
2024-01-10T02:05:47.586Z,873.00
2024-01-10T02:06:47.600Z,873.00
2024-01-10T02:07:47.681Z,873.00
2024-01-10T02:08:47.728Z,874.00
2024-01-10T02:09:47.772Z,875.00
2024-01-10T02:10:47.858Z,877.00
2024-01-10T02:11:47.893Z,881.00
2024-01-10T02:12:47.958Z,882.00
2024-01-10T02:13:48.078Z,884.00
2024-01-10T02:14:48.115Z,884.00
2024-01-10T02:15:48.144Z,886.00
2024-01-10T02:16:48.273Z,887.00
2024-01-10T02:17:48.347Z,887.00
2024-01-10T02:18:48.326Z,886.00
2024-01-10T02:19:48.386Z,884.00
2024-01-10T02:20:48.462Z,881.00
2024-01-10T02:21:48.533Z,880.00
2024-01-10T02:22:48.612Z,879.00
2024-01-10T02:23:48.641Z,878.00
2024-01-10T02:24:48.709Z,870.00
2024-01-10T02:25:48.777Z,867.00
2024-01-10T02:26:48.825Z,865.00
2024-01-10T02:27:48.877Z,866.00
2024-01-10T02:28:48.945Z,867.00
2024-01-10T02:29:49.009Z,866.00
2024-01-10T02:30:49.089Z,863.00
2024-01-10T02:31:49.216Z,862.00
2024-01-10T02:32:49.265Z,859.00
2024-01-10T02:33:49.272Z,862.00
2024-01-10T02:34:49.323Z,861.00
2024-01-10T02:35:49.386Z,864.00
2024-01-10T02:36:49.455Z,866.00
2024-01-10T02:37:49.544Z,863.00
2024-01-10T02:38:49.569Z,859.00
2024-01-10T02:39:49.620Z,857.00
2024-01-10T02:40:49.724Z,858.00
2024-01-10T02:41:49.755Z,858.00
2024-01-10T02:42:49.804Z,858.00
2024-01-10T02:43:49.928Z,855.00
2024-01-10T02:44:49.918Z,855.00
2024-01-10T02:45:49.986Z,853.00
2024-01-10T02:46:50.042Z,850.00
2024-01-10T02:47:50.142Z,850.00
2024-01-10T02:48:50.184Z,848.00
2024-01-10T02:49:50.214Z,844.00
2024-01-10T02:50:50.298Z,840.00
2024-01-10T02:51:50.376Z,841.00
2024-01-10T02:52:50.837Z,840.00
2024-01-10T02:53:50.491Z,841.00
2024-01-10T02:54:50.552Z,842.00
2024-01-10T02:55:50.643Z,842.00
2024-01-10T02:56:50.683Z,842.00
2024-01-10T02:57:50.730Z,842.00
2024-01-10T02:58:50.821Z,841.00
2024-01-10T02:59:50.851Z,839.00
2024-01-10T03:00:50.965Z,840.00
2024-01-10T03:01:50.970Z,839.00
2024-01-10T03:02:51.053Z,838.00
2024-01-10T03:03:51.071Z,836.00
2024-01-10T03:04:51.152Z,836.00
2024-01-10T03:05:51.236Z,837.00
2024-01-10T03:06:51.260Z,837.00
2024-01-10T03:07:51.338Z,837.00
2024-01-10T03:08:51.312Z,837.00
2024-01-10T03:09:51.367Z,837.00
2024-01-10T03:10:51.451Z,834.00
2024-01-10T03:11:51.441Z,832.00
2024-01-10T03:12:51.446Z,832.00
2024-01-10T03:13:51.518Z,833.00
2024-01-10T03:14:51.625Z,833.00
2024-01-10T03:15:51.681Z,828.00
2024-01-10T03:16:51.764Z,830.00
2024-01-10T03:17:51.881Z,830.00
2024-01-10T03:18:51.916Z,831.00
2024-01-10T03:19:52.000Z,831.00
2024-01-10T03:20:51.975Z,831.00
2024-01-10T03:21:52.038Z,831.00
2024-01-10T03:22:52.189Z,830.00
2024-01-10T03:23:52.140Z,829.00
2024-01-10T03:24:52.211Z,826.00
2024-01-10T03:25:52.294Z,826.00
2024-01-10T03:26:52.317Z,827.00
2024-01-10T03:27:52.324Z,825.00
2024-01-10T03:28:52.444Z,826.00
2024-01-10T03:29:52.477Z,824.00
2024-01-10T03:30:52.565Z,822.00
2024-01-10T03:31:52.548Z,821.00
2024-01-10T03:32:52.610Z,820.00
2024-01-10T03:33:52.710Z,822.00
2024-01-10T03:34:52.716Z,823.00
2024-01-10T03:35:52.624Z,824.00
2024-01-10T03:36:52.738Z,823.00
2024-01-10T03:37:52.785Z,823.00
2024-01-10T03:38:52.804Z,822.00
2024-01-10T03:39:52.861Z,823.00
2024-01-10T03:40:52.903Z,823.00
2024-01-10T03:41:52.875Z,824.00
2024-01-10T03:42:52.964Z,822.00
2024-01-10T03:43:53.016Z,821.00
2024-01-10T03:44:53.004Z,817.00
2024-01-10T03:45:53.010Z,816.00
2024-01-10T03:46:53.126Z,815.00
2024-01-10T03:47:53.247Z,814.00
2024-01-10T03:48:53.169Z,810.00
2024-01-10T03:49:53.308Z,807.00
2024-01-10T03:50:53.245Z,807.00
2024-01-10T03:51:53.288Z,803.00
2024-01-10T03:52:53.366Z,803.00
2024-01-10T03:53:53.366Z,799.00
2024-01-10T03:54:53.434Z,800.00
2024-01-10T03:55:53.485Z,801.00
2024-01-10T03:56:53.535Z,799.00
2024-01-10T03:57:53.611Z,799.00
2024-01-10T03:58:53.655Z,802.00
2024-01-10T03:59:53.629Z,803.00
2024-01-10T04:00:53.751Z,803.00
2024-01-10T04:01:53.761Z,804.00
2024-01-10T04:02:53.801Z,805.00
2024-01-10T04:03:53.866Z,806.00
2024-01-10T04:04:53.938Z,805.00
2024-01-10T04:05:53.972Z,803.00
2024-01-10T04:06:53.985Z,801.00
2024-01-10T04:07:54.057Z,799.00
2024-01-10T04:08:54.104Z,796.00
2024-01-10T04:09:54.159Z,795.00
2024-01-10T04:10:54.211Z,796.00
2024-01-10T04:11:54.271Z,795.00
2024-01-10T04:12:54.831Z,795.00
2024-01-10T04:13:54.355Z,794.00
2024-01-10T04:14:54.416Z,793.00
2024-01-10T04:15:54.456Z,792.00
2024-01-10T04:16:54.478Z,790.00
2024-01-10T04:17:54.648Z,791.00
2024-01-10T04:18:54.694Z,790.00
2024-01-10T04:20:02.422Z,781.00
2024-01-10T04:21:02.444Z,774.00
2024-01-10T04:22:02.344Z,779.00
2024-01-10T04:23:02.401Z,782.00
2024-01-10T04:24:02.412Z,786.00
2024-01-10T04:25:02.342Z,790.00
2024-01-10T04:26:02.449Z,787.00
2024-01-10T04:27:02.368Z,787.00
2024-01-10T04:28:02.375Z,788.00
2024-01-10T04:29:02.399Z,789.00
2024-01-10T04:30:02.512Z,789.00
2024-01-10T04:31:10.322Z,775.00
2024-01-10T04:32:10.274Z,777.00
2024-01-10T04:33:10.302Z,775.00
2024-01-10T04:34:10.269Z,774.00
2024-01-10T04:35:10.249Z,773.00
2024-01-10T04:36:10.225Z,772.00
2024-01-10T04:37:10.193Z,775.00
2024-01-10T04:38:10.273Z,777.00
2024-01-10T04:39:10.222Z,776.00
2024-01-10T04:40:10.260Z,777.00
2024-01-10T04:41:10.288Z,776.00
2024-01-10T04:42:10.253Z,775.00
2024-01-10T04:43:10.261Z,774.00
2024-01-10T04:44:10.275Z,772.00
2024-01-10T04:45:10.251Z,769.00
2024-01-10T04:46:10.232Z,767.00
2024-01-10T04:47:10.264Z,765.00
2024-01-10T04:48:10.322Z,765.00
2024-01-10T04:49:10.258Z,765.00
2024-01-10T04:50:13.718Z,765.00
2024-01-10T04:51:10.228Z,763.00
2024-01-10T04:52:10.239Z,765.00
2024-01-10T04:53:10.330Z,771.00
2024-01-10T04:54:10.267Z,768.00
2024-01-10T04:55:10.332Z,770.00
2024-01-10T04:56:10.233Z,765.00
2024-01-10T04:57:10.255Z,764.00
2024-01-10T04:58:10.368Z,765.00
2024-01-10T04:59:10.241Z,763.00
2024-01-10T05:00:10.263Z,759.00
2024-01-10T05:01:10.359Z,758.00
2024-01-10T05:02:10.313Z,758.00
2024-01-10T05:03:10.331Z,757.00
2024-01-10T05:04:10.253Z,753.00
2024-01-10T05:05:10.402Z,755.00
2024-01-10T05:06:10.293Z,756.00
2024-01-10T05:07:10.293Z,757.00
2024-01-10T05:08:10.330Z,758.00
2024-01-10T05:09:10.286Z,758.00
2024-01-10T05:10:10.359Z,760.00
2024-01-10T05:11:10.562Z,760.00
2024-01-10T05:12:10.480Z,759.00
2024-01-10T05:13:10.587Z,758.00
2024-01-10T05:14:10.691Z,756.00
2024-01-10T05:15:10.716Z,756.00
2024-01-10T05:16:10.755Z,754.00
2024-01-10T05:17:10.914Z,753.00
2024-01-10T05:18:11.033Z,753.00
2024-01-10T05:19:11.001Z,754.00
2024-01-10T05:20:11.054Z,754.00
2024-01-10T05:21:11.208Z,753.00
2024-01-10T05:22:11.197Z,756.00
2024-01-10T05:23:11.291Z,758.00
2024-01-10T05:24:11.309Z,755.00
2024-01-10T05:25:11.349Z,755.00
2024-01-10T05:26:11.539Z,754.00
2024-01-10T05:27:11.478Z,753.00
2024-01-10T05:28:11.537Z,751.00
2024-01-10T05:29:11.681Z,749.00
2024-01-10T05:30:11.705Z,751.00
2024-01-10T05:31:11.817Z,753.00
2024-01-10T05:32:11.844Z,751.00
2024-01-10T05:33:12.008Z,748.00
2024-01-10T05:34:11.983Z,747.00
2024-01-10T05:35:12.148Z,746.00
2024-01-10T05:36:12.093Z,745.00
2024-01-10T05:37:12.153Z,743.00
2024-01-10T05:38:12.247Z,745.00
2024-01-10T05:39:12.271Z,746.00
2024-01-10T05:40:12.308Z,747.00
2024-01-10T05:41:12.504Z,745.00
2024-01-10T05:42:12.492Z,744.00
2024-01-10T05:43:12.571Z,743.00
2024-01-10T05:44:12.643Z,743.00
2024-01-10T05:45:12.694Z,748.00
2024-01-10T05:46:12.748Z,746.00
2024-01-10T05:47:12.848Z,749.00
2024-01-10T05:48:13.086Z,751.00
2024-01-10T05:49:13.019Z,748.00
2024-01-10T05:50:13.042Z,746.00
2024-01-10T05:51:13.139Z,744.00
2024-01-10T05:52:13.179Z,745.00
2024-01-10T05:53:13.392Z,743.00
2024-01-10T05:54:13.296Z,740.00
2024-01-10T05:55:13.365Z,739.00
2024-01-10T05:56:13.518Z,737.00
2024-01-10T05:57:13.554Z,739.00
2024-01-10T05:58:13.575Z,740.00
2024-01-10T05:59:13.723Z,739.00
2024-01-10T06:00:13.660Z,737.00
2024-01-10T06:01:13.973Z,739.00
2024-01-10T06:02:13.877Z,739.00
2024-01-10T06:03:13.927Z,739.00
2024-01-10T06:04:13.919Z,740.00
2024-01-10T06:05:14.028Z,740.00
2024-01-10T06:06:14.072Z,739.00
2024-01-10T06:07:14.176Z,740.00
2024-01-10T06:08:14.237Z,737.00
2024-01-10T06:09:14.266Z,734.00
2024-01-10T06:10:14.319Z,736.00
2024-01-10T06:11:14.498Z,734.00
2024-01-10T06:12:14.497Z,736.00
2024-01-10T06:13:14.537Z,734.00
2024-01-10T06:14:14.636Z,734.00
2024-01-10T06:15:14.673Z,732.00
2024-01-10T06:16:14.764Z,731.00
2024-01-10T06:17:14.869Z,729.00
2024-01-10T06:18:14.976Z,728.00
2024-01-10T06:19:15.022Z,729.00
2024-01-10T06:20:15.228Z,731.00
2024-01-10T06:21:15.192Z,731.00
2024-01-10T06:22:15.091Z,728.00
2024-01-10T06:23:15.271Z,726.00
2024-01-10T06:24:15.270Z,725.00
2024-01-10T06:25:15.333Z,726.00
2024-01-10T06:26:15.506Z,726.00
2024-01-10T06:27:16.357Z,726.00
2024-01-10T06:28:15.556Z,725.00
2024-01-10T06:29:15.663Z,724.00
2024-01-10T06:30:15.734Z,728.00
2024-01-10T06:31:15.869Z,729.00
2024-01-10T06:32:15.930Z,728.00
2024-01-10T06:33:15.919Z,728.00
2024-01-10T06:34:16.158Z,727.00
2024-01-10T06:35:16.091Z,727.00
2024-01-10T06:36:16.080Z,726.00
2024-01-10T06:37:16.364Z,729.00
2024-01-10T06:38:16.332Z,732.00
2024-01-10T06:39:16.379Z,733.00
2024-01-10T06:40:16.356Z,734.00
2024-01-10T06:41:16.602Z,733.00
2024-01-10T06:42:16.456Z,734.00
2024-01-10T06:43:16.575Z,730.00
2024-01-10T06:44:16.651Z,727.00
2024-01-10T06:45:16.690Z,726.00
2024-01-10T06:46:16.736Z,722.00
2024-01-10T06:47:16.845Z,720.00
2024-01-10T06:48:16.940Z,721.00
2024-01-10T06:49:16.967Z,721.00
2024-01-10T06:50:17.058Z,720.00
2024-01-10T06:51:17.040Z,719.00
2024-01-10T06:52:17.107Z,715.00
2024-01-10T06:53:17.432Z,715.00
2024-01-10T06:54:17.217Z,714.00
2024-01-10T06:55:17.276Z,714.00
2024-01-10T06:56:17.350Z,712.00
2024-01-10T06:57:17.457Z,711.00
2024-01-10T06:58:17.518Z,710.00
2024-01-10T06:59:17.608Z,714.00
2024-01-10T07:00:17.599Z,714.00
2024-01-10T07:01:17.694Z,714.00
2024-01-10T07:02:17.827Z,712.00
2024-01-10T07:03:17.838Z,713.00
2024-01-10T07:04:20.139Z,714.00
2024-01-10T07:05:17.922Z,714.00
2024-01-10T07:06:17.883Z,716.00
2024-01-10T07:07:17.813Z,720.00
2024-01-10T07:08:17.853Z,724.00
2024-01-10T07:09:17.842Z,724.00
2024-01-10T07:10:17.887Z,726.00
2024-01-10T07:11:17.863Z,726.00
2024-01-10T07:12:17.864Z,724.00
2024-01-10T07:13:17.865Z,726.00
2024-01-10T07:14:17.907Z,728.00
2024-01-10T07:15:17.831Z,728.00
2024-01-10T07:16:17.833Z,728.00
2024-01-10T07:17:17.879Z,727.00
2024-01-10T07:18:17.905Z,725.00
2024-01-10T07:19:17.887Z,728.00
2024-01-10T07:20:17.929Z,728.00
2024-01-10T07:21:17.867Z,728.00
2024-01-10T07:22:17.841Z,728.00
2024-01-10T07:23:17.945Z,729.00
2024-01-10T07:24:18.015Z,728.00
2024-01-10T07:25:17.865Z,729.00
2024-01-10T07:26:18.015Z,729.00
2024-01-10T07:27:17.871Z,729.00
2024-01-10T07:28:17.905Z,729.00
2024-01-10T07:29:17.914Z,730.00
2024-01-10T07:30:18.002Z,730.00
2024-01-10T07:31:17.903Z,729.00
2024-01-10T07:32:17.993Z,732.00
2024-01-10T07:33:18.072Z,732.00
2024-01-10T07:34:18.072Z,729.00
2024-01-10T07:35:17.930Z,730.00
2024-01-10T07:36:17.881Z,727.00
2024-01-10T07:37:17.888Z,726.00
2024-01-10T07:38:17.958Z,723.00
2024-01-10T07:39:17.895Z,722.00
2024-01-10T07:40:17.923Z,722.00
2024-01-10T07:41:18.000Z,724.00
2024-01-10T07:42:18.021Z,719.00
2024-01-10T07:43:18.064Z,716.00
2024-01-10T07:44:18.189Z,716.00
2024-01-10T07:45:18.193Z,716.00
2024-01-10T07:46:18.258Z,717.00
2024-01-10T07:47:18.353Z,717.00
2024-01-10T07:48:18.435Z,715.00
2024-01-10T07:49:18.455Z,716.00
2024-01-10T07:50:18.556Z,716.00
2024-01-10T07:51:18.555Z,716.00
2024-01-10T07:52:19.041Z,717.00
2024-01-10T07:53:18.981Z,720.00
2024-01-10T07:54:18.787Z,721.00
2024-01-10T07:55:18.797Z,720.00
2024-01-10T07:56:18.901Z,720.00
2024-01-10T07:57:18.942Z,721.00
2024-01-10T07:58:19.006Z,721.00
2024-01-10T07:59:19.144Z,722.00
2024-01-10T08:00:19.123Z,723.00
2024-01-10T08:01:19.248Z,724.00
2024-01-10T08:02:19.326Z,723.00
2024-01-10T08:03:19.430Z,722.00
2024-01-10T08:04:19.421Z,723.00
2024-01-10T08:05:19.528Z,724.00
2024-01-10T08:06:24.215Z,722.00
2024-01-10T08:07:20.514Z,724.00
2024-01-10T08:08:20.429Z,725.00
2024-01-10T08:09:19.521Z,729.00
2024-01-10T08:10:19.541Z,729.00
2024-01-10T08:11:19.585Z,729.00
2024-01-10T08:12:19.526Z,729.00
2024-01-10T08:13:19.925Z,729.00
2024-01-10T08:14:19.670Z,728.00
2024-01-10T08:15:19.597Z,728.00
2024-01-10T08:16:19.654Z,728.00
2024-01-10T08:17:19.706Z,728.00
2024-01-10T08:18:19.957Z,730.00
2024-01-10T08:19:19.912Z,731.00
2024-01-10T08:20:19.957Z,729.00
2024-01-10T08:21:19.986Z,728.00
2024-01-10T08:22:20.013Z,727.00
2024-01-10T08:23:20.461Z,730.00
2024-01-10T08:24:20.167Z,729.00
2024-01-10T08:25:20.299Z,729.00
2024-01-10T08:26:20.341Z,729.00
2024-01-10T08:27:20.334Z,731.00
2024-01-10T08:28:20.412Z,731.00
2024-01-10T08:29:20.609Z,733.00
2024-01-10T08:30:20.551Z,734.00
2024-01-10T08:31:20.634Z,732.00
2024-01-10T08:32:20.664Z,729.00
2024-01-10T08:33:20.972Z,728.00
2024-01-10T08:34:20.810Z,730.00
2024-01-10T08:35:20.827Z,729.00
2024-01-10T08:36:20.875Z,730.00
2024-01-10T08:37:20.920Z,728.00
2024-01-10T08:38:21.490Z,726.00
2024-01-10T08:39:21.110Z,727.00
2024-01-10T08:40:21.116Z,726.00
2024-01-10T08:41:21.175Z,725.00
2024-01-10T08:42:21.231Z,727.00
2024-01-10T08:43:21.271Z,725.00
2024-01-10T08:44:21.403Z,727.00
2024-01-10T08:45:21.507Z,726.00
2024-01-10T08:46:21.418Z,725.00
2024-01-10T08:47:21.559Z,725.00
2024-01-10T08:48:21.686Z,726.00
2024-01-10T08:49:21.686Z,785.00
2024-01-10T08:50:21.764Z,770.00
2024-01-10T08:51:21.742Z,772.00
2024-01-10T08:52:21.811Z,796.00
2024-01-10T08:53:21.942Z,894.00
2024-01-10T08:54:21.906Z,915.00
2024-01-10T08:55:21.991Z,1038.00
2024-01-10T08:56:22.070Z,1126.00
2024-01-10T08:57:22.103Z,1159.00
2024-01-10T08:58:22.401Z,1237.00
2024-01-10T08:59:22.223Z,1323.00
2024-01-10T09:00:22.221Z,1374.00
2024-01-10T09:01:22.331Z,1426.00
2024-01-10T09:02:22.494Z,1457.00
2024-01-10T09:03:22.441Z,1501.00
2024-01-10T09:04:22.368Z,1537.00
2024-01-10T09:05:22.449Z,1581.00
2024-01-10T09:06:22.532Z,1610.00
2024-01-10T09:07:22.572Z,1658.00
2024-01-10T09:08:22.517Z,1704.00
2024-01-10T09:09:22.577Z,1747.00
2024-01-10T09:10:22.479Z,1829.00
2024-01-10T09:11:22.516Z,1855.00
2024-01-10T09:12:22.933Z,1878.00
2024-01-10T09:13:22.533Z,1945.00
2024-01-10T09:14:22.678Z,1957.00
2024-01-10T09:15:22.591Z,1982.00
2024-01-10T09:16:22.619Z,2013.00
2024-01-10T09:17:22.709Z,2085.00
2024-01-10T09:18:22.871Z,2115.00
2024-01-10T09:19:22.968Z,2151.00
2024-01-10T09:20:23.051Z,2184.00
2024-01-10T09:21:22.990Z,2204.00
2024-01-10T09:22:23.060Z,2261.00
2024-01-10T09:23:23.176Z,2299.00
2024-01-10T09:24:29.040Z,2333.00
2024-01-10T09:25:24.137Z,2368.00
2024-01-10T09:26:23.240Z,2417.00
2024-01-10T09:27:23.195Z,2455.00
2024-01-10T09:28:23.435Z,2492.00
2024-01-10T09:29:23.290Z,2535.00
2024-01-10T09:30:23.250Z,2565.00
2024-01-10T09:31:23.170Z,2599.00
2024-01-10T09:32:23.252Z,2623.00
2024-01-10T09:33:23.302Z,2665.00
2024-01-10T09:34:23.332Z,2704.00
2024-01-10T09:35:23.261Z,2718.00
2024-01-10T09:36:23.280Z,2761.00
2024-01-10T09:37:23.292Z,2786.00
2024-01-10T09:38:23.505Z,2821.00
2024-01-10T09:39:24.033Z,2849.00
2024-01-10T09:40:23.481Z,2881.00
2024-01-10T09:41:23.525Z,2924.00
2024-01-10T09:42:23.523Z,2947.00
2024-01-10T09:43:24.032Z,2959.00
2024-01-10T09:44:23.970Z,2967.00
2024-01-10T09:45:23.694Z,2951.00
2024-01-10T09:46:23.707Z,2903.00
2024-01-10T09:47:23.907Z,2784.00
2024-01-10T09:48:23.914Z,2742.00
2024-01-10T09:49:24.489Z,2709.00
2024-01-10T09:50:23.940Z,2673.00
2024-01-10T09:51:23.975Z,2638.00
2024-01-10T09:52:24.031Z,2626.00
2024-01-10T09:53:24.465Z,2618.00
2024-01-10T09:54:24.178Z,2606.00
2024-01-10T09:55:25.692Z,2600.00
2024-01-10T09:56:24.385Z,2587.00
2024-01-10T09:57:24.349Z,2583.00
2024-01-10T09:58:24.415Z,2591.00
2024-01-10T09:59:24.562Z,2577.00
2024-01-10T10:00:24.551Z,2555.00
2024-01-10T10:01:24.686Z,2537.00
2024-01-10T10:02:25.020Z,2548.00
2024-01-10T10:03:24.829Z,2542.00
2024-01-10T10:04:24.990Z,2531.00
2024-01-10T10:05:25.231Z,2464.00
2024-01-10T10:06:25.109Z,2346.00
2024-01-10T10:07:25.052Z,2313.00
2024-01-10T10:08:25.128Z,2292.00
2024-01-10T10:09:25.117Z,2235.00
2024-01-10T10:10:25.244Z,2203.00
2024-01-10T10:11:25.420Z,2169.00
2024-01-10T10:12:25.288Z,2114.00
2024-01-10T10:13:25.453Z,2070.00
2024-01-10T10:14:25.494Z,2047.00
2024-01-10T10:15:25.502Z,2025.00
2024-01-10T10:16:25.498Z,1991.00
2024-01-10T10:17:25.643Z,1914.00
2024-01-10T10:18:25.527Z,1893.00
2024-01-10T10:19:34.477Z,1867.00
2024-01-10T10:20:26.626Z,1809.00
2024-01-10T10:21:25.565Z,1789.00
2024-01-10T10:22:25.618Z,1775.00
2024-01-10T10:23:25.844Z,1778.00
2024-01-10T10:24:27.267Z,1816.00
2024-01-10T10:25:25.785Z,1860.00
2024-01-10T10:26:25.918Z,1912.00
2024-01-10T10:27:25.912Z,1942.00
2024-01-10T10:28:32.363Z,1960.00
2024-01-10T10:29:27.054Z,1985.00
2024-01-10T10:30:26.025Z,2030.00
2024-01-10T10:31:25.990Z,2057.00
2024-01-10T10:32:26.053Z,2087.00
2024-01-10T10:33:26.157Z,2111.00
2024-01-10T10:34:26.117Z,2129.00
2024-01-10T10:35:36.145Z,2149.00
2024-01-10T10:36:27.001Z,2172.00
2024-01-10T10:37:26.042Z,2247.00
2024-01-10T10:38:26.118Z,2268.00
2024-01-10T10:39:26.068Z,2280.00
2024-01-10T10:40:25.997Z,2300.00
2024-01-10T10:41:26.028Z,2339.00
2024-01-10T10:42:26.028Z,2365.00
2024-01-10T10:43:26.031Z,2390.00
2024-01-10T10:44:26.152Z,2417.00
2024-01-10T10:45:26.036Z,2442.00
2024-01-10T10:46:26.741Z,2455.00
2024-01-10T10:47:26.135Z,2467.00
2024-01-10T10:48:26.280Z,2476.00
2024-01-10T10:49:26.567Z,2486.00
2024-01-10T10:50:26.263Z,2490.00
2024-01-10T10:51:26.350Z,2488.00
2024-01-10T10:52:26.406Z,2485.00
2024-01-10T10:53:26.590Z,2502.00
2024-01-10T10:54:26.474Z,2544.00
2024-01-10T10:55:26.521Z,2619.00
2024-01-10T10:56:26.670Z,2669.00
2024-01-10T10:57:26.623Z,2725.00
2024-01-10T10:58:26.699Z,2779.00
2024-01-10T10:59:26.871Z,2799.00
2024-01-10T11:00:26.749Z,2844.00
2024-01-10T11:01:26.871Z,2886.00
2024-01-10T11:02:30.342Z,2922.00
2024-01-10T11:03:27.876Z,2955.00
2024-01-10T11:04:26.915Z,3005.00
2024-01-10T11:05:27.278Z,3064.00
2024-01-10T11:06:26.899Z,3090.00
2024-01-10T11:07:26.963Z,3119.00
2024-01-10T11:08:26.888Z,3178.00
2024-01-10T11:09:26.896Z,3216.00
2024-01-10T11:10:26.859Z,3260.00
2024-01-10T11:11:26.938Z,3256.00
2024-01-10T11:12:26.845Z,3068.00
2024-01-10T11:13:26.858Z,3083.00
2024-01-10T11:14:26.995Z,2476.00
2024-01-10T11:15:26.843Z,2479.00
2024-01-10T11:16:26.891Z,2264.00
2024-01-10T11:17:26.932Z,2286.00
2024-01-10T11:18:26.939Z,2416.00
2024-01-10T11:19:26.944Z,2447.00
2024-01-10T11:20:27.085Z,2329.00
2024-01-10T11:21:27.077Z,2272.00
2024-01-10T11:22:27.168Z,2163.00
2024-01-10T11:23:27.286Z,2101.00
2024-01-10T11:24:27.309Z,2078.00
2024-01-10T11:25:27.329Z,2061.00
2024-01-10T11:26:27.508Z,2046.00
2024-01-10T11:27:27.473Z,2040.00
2024-01-10T11:28:27.592Z,2028.00
2024-01-10T11:29:27.698Z,2021.00
2024-01-10T11:30:28.042Z,2019.00
2024-01-10T11:31:27.706Z,2021.00
2024-01-10T11:32:27.908Z,2016.00
2024-01-10T11:33:27.940Z,2000.00
2024-01-10T11:34:28.191Z,1924.00
2024-01-10T11:35:28.049Z,1923.00
2024-01-10T11:36:28.104Z,1924.00
2024-01-10T11:37:28.122Z,1912.00
2024-01-10T11:38:28.302Z,1893.00
2024-01-10T11:39:28.251Z,1879.00
2024-01-10T11:40:28.329Z,1874.00
2024-01-10T11:41:28.472Z,1869.00
2024-01-10T11:42:28.476Z,1629.00
2024-01-10T11:43:28.489Z,1598.00
2024-01-10T11:44:28.774Z,1493.00
2024-01-10T11:45:28.534Z,1454.00
2024-01-10T11:46:28.537Z,1320.00
2024-01-10T11:47:28.626Z,1310.00
2024-01-10T11:48:28.714Z,1345.00
2024-01-10T11:49:28.723Z,1352.00
2024-01-10T11:50:28.736Z,1457.00
2024-01-10T11:51:28.719Z,1455.00
2024-01-10T11:52:28.728Z,1548.00
2024-01-10T11:53:28.796Z,1555.00
2024-01-10T11:54:28.776Z,1548.00
2024-01-10T11:55:28.798Z,1545.00
2024-01-10T11:56:33.853Z,1552.00
2024-01-10T11:57:31.765Z,1550.00
2024-01-10T11:58:28.786Z,1494.00
2024-01-10T11:59:28.874Z,1444.00
2024-01-10T12:00:28.824Z,1463.00
2024-01-10T12:01:28.822Z,1479.00
2024-01-10T12:02:28.961Z,1486.00
2024-01-10T12:03:28.821Z,1489.00
2024-01-10T12:04:38.424Z,1450.00
2024-01-10T12:05:29.876Z,1401.00
2024-01-10T12:06:28.951Z,1371.00
2024-01-10T12:07:29.120Z,1392.00
2024-01-10T12:08:28.891Z,1401.00
2024-01-10T12:09:30.411Z,1409.00
2024-01-10T12:10:29.073Z,1415.00
2024-01-10T12:11:29.091Z,1421.00
2024-01-10T12:12:29.118Z,1424.00
2024-01-10T12:13:29.119Z,1421.00
2024-01-10T12:14:29.199Z,1415.00
2024-01-10T12:15:29.164Z,1411.00
2024-01-10T12:16:29.191Z,1409.00
2024-01-10T12:17:29.247Z,1416.00
2024-01-10T12:18:29.271Z,1379.00
2024-01-10T12:19:29.267Z,1314.00
2024-01-10T12:20:29.203Z,1215.00
2024-01-10T12:21:29.181Z,1370.00
2024-01-10T12:22:29.244Z,1380.00